YPMQYWLM

Guest
Details From YPMQ - Port Macquarie
To YWLM - Williamtown
Flight Number -
Tags generated
Created
Modified
Stats Distance 97 nm / 180 km
Max Altitude 10,700 ft / 3,261 m
Waypoints 3
Social Downloads 1
Likes 0
Share VATSIM

Download

Looking for another format? Having issues loading an existing format? Contact us
Advertisement - Login to hide

Notes

Basic altitude profile: - Ascent Rate: 2500ft/min - Ascent Speed: 250kts - Cruise Altitude: 35000ft - Cruise Speed: 420kts - Descent Rate: 1500ft/min - Descent Speed: 250kts Options: - Use NATs: yes - Use PACOTS: yes - Use low airways: yes - Use high airways: no

Route

YPMQ TRE YWLM

ID Type Via Altitude Latitude Longitude Leg Dist Tot Dist Heading (true) Name
O YPMQ APT - 0 ft / 0 m -31.43449˚ 152.86585˚ - 0 nm - Port Macquarie
TRE NDB - 10,700 ft / 3,261 m -31.88949˚ 152.50948˚ 32 nm 32 nm 214° / 214° TAREE NDB
O YWLM APT - 0 ft / 0 m -32.79588˚ 151.83480˚ 64 nm 97 nm 212° / 212° Williamtown

Altitude Profile

Advertisement - Login to hide

YPMQ

Details ICAO YPMQ (PQQ)
Name Port Macquarie
Region Australia
Timezone Australia/Sydney (UTC+10.0)
Stats Elevation 12 ft / 4 m (AMSL)
Location -31.434488° 152.865850°
Runways 2
Magnetic Variation 12.229° E

METAR

YPMQ 261402Z AUTO 28001KT 9999 // BKN047 BKN056 12/11 Q1028

Decode

TAF

Not found

Departure Runways

ID Width Length Bearing (true) Bearing (mag) Surface Threshold Offset Overrun Length
03 98 ft / 30 m 5,220 ft / 1,591 m 29.60° 17.37° Asphalt 0 ft / 0 m 0 ft / 0 m
10 203 ft / 62 m 2,496 ft / 761 m 114.30° 102.07° Grass 0 ft / 0 m 0 ft / 0 m
21 98 ft / 30 m 5,220 ft / 1,591 m 209.60° 197.37° Asphalt 0 ft / 0 m 0 ft / 0 m
28 203 ft / 62 m 2,496 ft / 761 m 294.29° 282.06° Grass 0 ft / 0 m 0 ft / 0 m

YWLM

Details ICAO YWLM (NTL)
Name Williamtown
Region Australia
Timezone Australia/Sydney (UTC+10.0)
Stats Elevation 31 ft / 9 m (AMSL)
Location -32.795878° 151.834796°
Runways 1
Magnetic Variation 12.391° E

METAR

YWLM 261430Z AUTO 00000KT 9999 // BKN002 10/09 Q1027

Decode

TAF

TAF AMD YWLM 261400Z 2614/2712 VRB03KT 3000 BR SCT005 BECMG 2620/2622 31005KT CAVOK FM270400 06008KT CAVOK PROB40 2614/2622 0500 FG BKN001 PROB30 2622/2624 0500 FG BKN001

Decode

Destination Runways

ID Width Length Bearing (true) Bearing (mag) Surface Threshold Offset Overrun Length
12 148 ft / 45 m 8,001 ft / 2,439 m 130.44° 118.05° Asphalt 0 ft / 0 m 1,000 ft / 305 m
30 148 ft / 45 m 8,001 ft / 2,439 m 310.43° 298.04° Asphalt 0 ft / 0 m 1,000 ft / 305 m

Approach Navaids

Runway Type Ident Frequency Range Bearing (true) Bearing (mag) Slope Elevation
12 Localiser IWM 110.50 MHz 18 nm / 33 km 130.68° 118.29° - 31 ft / 9 m (AMSL)
12 Glidescope IWM 110.50 MHz 10 nm / 19 km 130.44° 118.05° 3.00° 31 ft / 9 m (AMSL)

Popular Alternatives